Hakodate, Japan
Current Conditions -  °F | °C
As of 4:00 PM on Sunday 23 Nov 2014 (Local Time) from RJCH Reporting Station
Few Clouds Few Clouds  
Wind Chill: 35°   Ceiling: Unl
Heat Index: 41°   Visibility: 6mi
Dew Point: 27°   Wind: 10mph
Humidity: 57%   Direction: 290°WNW
Pressure: 30.21"   Gusts: NA
Location:  41.8°N, 140.74°E
Report Text: RJCH 230700Z 29009KT 260V330 9999 FEW030 05/M03 Q1023
Loading
Personal Weather Stations






























Interactive Weather Map New forecast layout! Learn more

10-Day Weather Forecast

Advertisements
Track Severe Weather on mobile